Time;durP1;ratioP1;P1;durP2;ratioP2;P2;SDS_P1;SDS_P2;PMS_P1;PMS_P2;Temp;Humidity;BMP_temperature;BMP_pressure;BME280_temperature;BME280_humidity;BME280_pressure;Samples;Min_cycle;Max_cycle;Signal;HPM_P1;HPM_P2
2023/08/28 00:01:58;;;;;;;8.32;5.07;;;15.00;99.90;;;;;;5024623;28;20033;-59
2023/08/28 00:04:24;;;;;;;5.28;4.70;;;15.10;99.90;;;;;;5026141;28;20397;-59
2023/08/28 00:06:51;;;;;;;29.95;5.57;;;15.10;99.90;;;;;;5028132;28;20303;-60
2023/08/28 00:09:17;;;;;;;4.70;4.30;;;15.00;99.90;;;;;;5028871;28;20033;-60
2023/08/28 00:11:43;;;;;;;4.88;4.47;;;15.00;99.90;;;;;;5027586;28;20072;-59
2023/08/28 00:14:08;;;;;;;7.30;5.45;;;15.00;99.90;;;;;;5026281;28;20608;-59
2023/08/28 00:16:35;;;;;;;5.90;4.35;;;15.00;99.90;;;;;;5029630;28;20076;-61
2023/08/28 00:19:01;;;;;;;10.68;4.50;;;14.90;99.90;;;;;;5024603;28;20030;-62
2023/08/28 00:21:26;;;;;;;4.85;4.30;;;14.90;99.90;;;;;;5025443;28;20087;-60
2023/08/28 00:23:52;;;;;;;8.13;5.45;;;14.90;99.90;;;;;;5028426;28;20029;-60
2023/08/28 00:26:18;;;;;;;5.53;4.53;;;14.80;99.90;;;;;;5024350;28;20032;-62
2023/08/28 00:28:43;;;;;;;7.00;4.72;;;14.80;99.90;;;;;;5020021;28;20490;-61
2023/08/28 00:31:09;;;;;;;7.50;4.45;;;14.80;99.90;;;;;;5026836;28;20118;-60
2023/08/28 00:33:35;;;;;;;7.55;5.30;;;14.80;99.90;;;;;;5024751;28;20489;-60
2023/08/28 00:36:00;;;;;;;9.35;5.13;;;14.80;99.90;;;;;;5029931;28;20150;-62
2023/08/28 00:38:26;;;;;;;6.75;4.32;;;14.70;99.90;;;;;;5027633;28;20041;-60
2023/08/28 00:40:52;;;;;;;5.35;3.95;;;14.70;99.90;;;;;;5027305;28;20062;-60
2023/08/28 00:43:17;;;;;;;7.50;4.47;;;14.70;99.90;;;;;;5035001;28;20120;-62
2023/08/28 00:45:43;;;;;;;6.82;5.03;;;14.70;99.90;;;;;;5020659;28;20057;-62
2023/08/28 00:48:12;;;;;;;11.68;4.78;;;14.70;99.90;;;;;;5025982;28;20035;-60
2023/08/28 00:50:38;;;;;;;6.72;4.35;;;14.70;99.90;;;;;;5034036;28;20055;-59
2023/08/28 00:53:04;;;;;;;7.30;4.80;;;14.70;99.90;;;;;;5036054;28;20502;-59
2023/08/28 00:55:34;;;;;;;8.40;4.85;;;14.70;99.90;;;;;;5033738;28;20037;-60
2023/08/28 00:58:00;;;;;;;6.93;4.68;;;14.70;99.90;;;;;;5028702;28;20391;-61
2023/08/28 01:00:26;;;;;;;7.80;4.90;;;14.70;99.90;;;;;;5024800;28;20129;-61
2023/08/28 01:02:52;;;;;;;9.55;5.07;;;14.70;99.90;;;;;;5029815;28;20101;-60
2023/08/28 01:05:18;;;;;;;12.73;5.50;;;14.70;99.90;;;;;;5030540;28;20072;-59
2023/08/28 01:07:59;;;;;;;13.25;5.65;;;14.80;99.90;;;;;;5029556;28;20037;-60
2023/08/28 01:10:34;;;;;;;10.45;5.55;;;14.80;99.90;;;;;;5030872;28;20568;-60
2023/08/28 01:13:07;;;;;;;7.13;5.13;;;14.80;99.90;;;;;;5024895;28;20030;-61
2023/08/28 01:15:35;;;;;;;7.57;5.35;;;14.70;99.90;;;;;;5024062;28;20197;-62
2023/08/28 01:18:04;;;;;;;13.35;5.38;;;14.70;99.90;;;;;;5025300;28;20033;-62
2023/08/28 01:20:33;;;;;;;18.30;5.03;;;14.60;99.90;;;;;;5026542;28;20136;-59
2023/08/28 01:23:24;;;;;;;8.80;4.75;;;14.60;99.90;;;;;;5024558;28;20561;-59
2023/08/28 01:25:51;;;;;;;6.50;4.90;;;14.60;99.90;;;;;;5028417;28;20057;-61
2023/08/28 01:28:17;;;;;;;19.60;5.22;;;14.50;99.90;;;;;;5029854;28;20033;-59
2023/08/28 01:30:42;;;;;;;7.28;3.88;;;14.50;99.90;;;;;;5025738;28;20036;-60
2023/08/28 01:33:08;;;;;;;5.03;4.20;;;14.30;99.90;;;;;;5026444;28;20030;-59
2023/08/28 01:35:34;;;;;;;7.18;4.75;;;14.30;99.90;;;;;;5028332;28;20072;-60
2023/08/28 01:38:12;;;;;;;16.73;5.50;;;14.20;99.90;;;;;;5032184;28;20729;-59
2023/08/28 01:40:59;;;;;;;14.90;6.28;;;14.20;99.90;;;;;;5030293;28;20033;-60
2023/08/28 01:43:31;;;;;;;8.23;5.82;;;14.30;99.90;;;;;;5030848;28;20059;-60
2023/08/28 01:45:57;;;;;;;19.90;6.50;;;14.30;99.90;;;;;;5033649;28;20383;-60
2023/08/28 01:48:26;;;;;;;12.38;5.93;;;14.40;99.90;;;;;;5025942;28;20029;-60
2023/08/28 01:50:52;;;;;;;7.90;6.63;;;14.40;99.90;;;;;;5030562;28;20033;-60
2023/08/28 01:53:17;;;;;;;11.73;7.65;;;14.50;99.90;;;;;;5032057;28;20063;-60
2023/08/28 01:55:45;;;;;;;16.58;6.80;;;14.50;99.90;;;;;;5032174;28;20033;-62
2023/08/28 01:58:12;;;;;;;16.73;6.97;;;14.50;99.90;;;;;;5027265;28;20037;-61
2023/08/28 02:00:38;;;;;;;10.43;6.28;;;14.60;99.90;;;;;;5023376;28;20132;-60
2023/08/28 02:03:05;;;;;;;8.05;6.18;;;14.50;99.90;;;;;;5027077;28;20573;-60
2023/08/28 02:05:32;;;;;;;9.93;5.80;;;14.50;99.90;;;;;;5029544;28;20069;-60
2023/08/28 02:07:57;;;;;;;6.32;5.82;;;14.50;99.90;;;;;;5026136;28;20030;-59
2023/08/28 02:10:23;;;;;;;7.18;6.40;;;14.50;99.90;;;;;;5024787;28;20033;-61
2023/08/28 02:12:48;;;;;;;7.03;6.32;;;14.50;99.90;;;;;;5029972;28;20026;-61
2023/08/28 02:15:14;;;;;;;8.57;5.65;;;14.50;99.90;;;;;;5031111;28;20425;-61
2023/08/28 02:17:40;;;;;;;8.48;6.75;;;14.50;99.90;;;;;;5027506;28;20426;-60
2023/08/28 02:20:06;;;;;;;7.32;5.63;;;14.50;99.90;;;;;;5024054;28;20037;-60
2023/08/28 02:22:32;;;;;;;13.35;5.85;;;14.50;99.90;;;;;;5018017;28;20718;-60
2023/08/28 02:24:58;;;;;;;5.28;4.82;;;14.50;99.90;;;;;;5020582;28;20049;-61
2023/08/28 02:27:24;;;;;;;5.13;4.60;;;14.40;99.90;;;;;;5021670;28;20021;-60
2023/08/28 02:29:50;;;;;;;7.68;4.72;;;14.40;99.90;;;;;;5026853;28;20030;-59
2023/08/28 02:32:15;;;;;;;6.43;4.72;;;14.40;99.90;;;;;;5024089;28;20066;-61
2023/08/28 02:34:42;;;;;;;9.18;5.40;;;14.40;99.90;;;;;;5028729;28;20033;-61
2023/08/28 02:37:07;;;;;;;6.85;5.35;;;14.40;99.90;;;;;;5022597;28;20033;-60
2023/08/28 02:39:33;;;;;;;7.88;5.10;;;14.40;99.90;;;;;;5028875;28;20124;-60
2023/08/28 02:41:59;;;;;;;6.40;4.82;;;14.40;99.90;;;;;;5024778;28;20486;-60
2023/08/28 02:44:24;;;;;;;6.78;5.32;;;14.50;99.90;;;;;;5025196;28;20578;-62
2023/08/28 02:46:50;;;;;;;4.72;4.32;;;14.50;99.90;;;;;;5026888;28;20037;-61
2023/08/28 02:49:15;;;;;;;8.32;4.88;;;14.50;99.90;;;;;;5023495;28;20037;-61
2023/08/28 02:51:41;;;;;;;10.90;4.95;;;14.50;99.90;;;;;;5027981;28;20773;-60
2023/08/28 02:54:08;;;;;;;11.48;5.97;;;14.50;99.90;;;;;;5030814;28;20816;-59
2023/08/28 02:56:40;;;;;;;5.50;4.65;;;14.50;99.90;;;;;;5025974;28;20029;-60
2023/08/28 02:59:06;;;;;;;8.00;4.30;;;14.50;99.90;;;;;;5021312;28;20042;-61
2023/08/28 03:01:35;;;;;;;5.97;5.05;;;14.50;99.90;;;;;;5022098;28;20022;-61
2023/08/28 03:04:05;;;;;;;9.38;5.38;;;14.50;99.90;;;;;;5025725;28;20030;-62
2023/08/28 03:06:37;;;;;;;5.38;4.25;;;14.50;99.90;;;;;;5025752;28;20029;-61
2023/08/28 03:09:04;;;;;;;11.38;5.68;;;14.50;99.90;;;;;;5029348;28;20030;-61
2023/08/28 03:11:30;;;;;;;16.98;5.13;;;14.50;99.90;;;;;;5025128;28;20029;-59
2023/08/28 03:13:55;;;;;;;17.33;6.32;;;14.50;99.90;;;;;;5028014;28;20048;-59
2023/08/28 03:16:21;;;;;;;38.28;8.48;;;14.50;99.90;;;;;;5024729;28;20026;-61
2023/08/28 03:18:47;;;;;;;26.35;8.48;;;14.50;99.90;;;;;;5032168;28;20042;-59
2023/08/28 03:21:12;;;;;;;8.98;6.63;;;14.60;99.90;;;;;;5031283;28;20029;-59
2023/08/28 03:23:38;;;;;;;10.07;7.03;;;14.60;99.90;;;;;;5024336;28;20071;-60
2023/08/28 03:26:04;;;;;;;9.00;6.75;;;14.60;99.90;;;;;;5026422;28;20041;-59
2023/08/28 03:28:30;;;;;;;10.27;6.05;;;14.60;99.90;;;;;;5023688;28;20057;-60
2023/08/28 03:30:57;;;;;;;8.90;7.15;;;14.60;99.90;;;;;;5025772;28;20033;-63
2023/08/28 03:33:22;;;;;;;11.60;7.05;;;14.60;99.90;;;;;;5026357;28;20026;-60
2023/08/28 03:35:48;;;;;;;8.55;6.80;;;14.60;99.90;;;;;;5025402;28;20067;-60
2023/08/28 03:38:14;;;;;;;10.60;7.30;;;14.60;99.90;;;;;;5025533;28;20083;-62
2023/08/28 03:40:39;;;;;;;14.82;7.18;;;14.60;99.90;;;;;;5028907;28;20502;-60
2023/08/28 03:43:05;;;;;;;9.50;6.68;;;14.50;99.90;;;;;;5026579;28;20034;-62
2023/08/28 03:45:31;;;;;;;21.55;7.13;;;14.50;99.90;;;;;;5028724;28;20572;-62
2023/08/28 03:47:56;;;;;;;18.27;7.60;;;14.50;99.90;;;;;;5030793;28;20025;-59
2023/08/28 03:50:22;;;;;;;24.77;8.43;;;14.50;99.90;;;;;;5028637;28;20079;-60
2023/08/28 03:52:48;;;;;;;14.07;8.52;;;14.50;99.90;;;;;;5025406;28;20547;-60
2023/08/28 03:55:13;;;;;;;10.73;7.30;;;14.50;99.90;;;;;;5023946;28;20041;-60
2023/08/28 03:57:39;;;;;;;14.40;7.32;;;14.40;99.90;;;;;;5023966;28;20640;-60
2023/08/28 04:00:10;;;;;;;18.25;8.68;;;14.40;99.90;;;;;;5026504;28;20067;-61
2023/08/28 04:02:37;;;;;;;15.90;7.68;;;14.40;99.90;;;;;;5025936;28;20021;-61
2023/08/28 04:05:04;;;;;;;8.35;7.35;;;14.40;99.90;;;;;;5027966;28;20087;-59
2023/08/28 04:07:31;;;;;;;12.05;7.35;;;14.40;99.90;;;;;;5028307;28;20151;-60
2023/08/28 04:09:57;;;;;;;9.38;7.18;;;14.40;99.90;;;;;;5026541;28;20053;-62
2023/08/28 04:12:23;;;;;;;9.02;7.22;;;14.30;99.90;;;;;;5026686;28;20049;-60
2023/08/28 04:14:48;;;;;;;13.57;7.55;;;14.30;99.90;;;;;;5028420;28;20390;-61
2023/08/28 04:17:14;;;;;;;8.55;7.43;;;14.30;99.90;;;;;;5024651;28;20026;-60
2023/08/28 04:19:40;;;;;;;12.63;7.22;;;14.30;99.90;;;;;;5029268;28;20479;-59
2023/08/28 04:22:06;;;;;;;10.80;6.70;;;14.30;99.90;;;;;;5029254;28;20038;-60
2023/08/28 04:24:32;;;;;;;7.20;6.53;;;14.30;99.90;;;;;;5029051;28;20037;-59
2023/08/28 04:26:58;;;;;;;23.02;8.93;;;14.30;99.90;;;;;;5035325;28;20025;-60
2023/08/28 04:29:24;;;;;;;45.78;7.63;;;14.30;99.90;;;;;;5034056;28;20477;-59
2023/08/28 04:31:49;;;;;;;17.38;7.85;;;14.30;99.90;;;;;;5030940;28;20022;-62
2023/08/28 04:34:15;;;;;;;9.25;7.53;;;14.30;99.90;;;;;;5030110;28;20390;-59
2023/08/28 04:36:41;;;;;;;43.17;8.32;;;14.30;99.90;;;;;;5029732;28;20029;-59
2023/08/28 04:39:06;;;;;;;16.40;7.68;;;14.30;99.90;;;;;;5040871;28;20043;-59
2023/08/28 04:41:33;;;;;;;12.00;7.15;;;14.40;99.90;;;;;;5030976;28;20029;-60
2023/08/28 04:43:58;;;;;;;12.18;6.72;;;14.40;99.90;;;;;;5031344;28;20034;-61
2023/08/28 04:46:25;;;;;;;25.58;7.47;;;14.40;99.90;;;;;;5034146;28;20041;-60
2023/08/28 04:48:51;;;;;;;15.48;5.82;;;14.40;99.90;;;;;;5037394;28;20029;-62
2023/08/28 04:51:17;;;;;;;23.67;6.95;;;14.50;99.90;;;;;;5022850;28;20026;-60
2023/08/28 04:53:42;;;;;;;6.95;5.63;;;14.50;99.90;;;;;;5024058;28;20259;-61
2023/08/28 04:56:08;;;;;;;6.70;6.15;;;14.40;99.90;;;;;;5021618;28;20405;-60
2023/08/28 04:58:34;;;;;;;6.63;6.03;;;14.50;99.90;;;;;;5038428;28;20034;-60
2023/08/28 05:01:00;;;;;;;7.40;5.47;;;14.50;99.90;;;;;;5033946;28;20444;-61
2023/08/28 05:03:26;;;;;;;6.88;5.82;;;14.50;99.90;;;;;;5027304;28;20076;-61
2023/08/28 05:05:52;;;;;;;6.35;5.75;;;14.50;99.90;;;;;;5027464;28;20486;-61
2023/08/28 05:08:18;;;;;;;10.02;5.82;;;14.50;99.90;;;;;;5030302;28;20061;-61
2023/08/28 05:10:44;;;;;;;7.28;5.65;;;14.50;99.90;;;;;;5029805;28;20061;-60
2023/08/28 05:13:09;;;;;;;7.35;5.82;;;14.50;99.90;;;;;;5031153;28;20129;-59
2023/08/28 05:15:35;;;;;;;8.30;6.03;;;14.50;99.90;;;;;;5032729;28;20543;-61
2023/08/28 05:18:01;;;;;;;10.50;6.00;;;14.50;99.90;;;;;;5026733;28;20091;-59
2023/08/28 05:20:28;;;;;;;7.57;6.80;;;14.50;99.90;;;;;;5020911;28;20033;-59
2023/08/28 05:22:54;;;;;;;7.20;6.50;;;14.50;99.90;;;;;;5028076;28;20056;-61
2023/08/28 05:25:19;;;;;;;8.77;7.22;;;14.50;99.90;;;;;;5027178;28;20045;-60
2023/08/28 05:27:45;;;;;;;16.40;7.20;;;14.50;99.90;;;;;;5025644;28;20057;-60
2023/08/28 05:30:11;;;;;;;9.05;7.07;;;14.50;99.90;;;;;;5027477;28;20025;-61
2023/08/28 05:32:37;;;;;;;9.60;7.13;;;14.50;99.90;;;;;;5027142;28;20021;-61
2023/08/28 05:35:04;;;;;;;8.70;7.07;;;14.50;99.90;;;;;;5026956;28;20037;-60
2023/08/28 05:37:29;;;;;;;11.65;7.53;;;14.50;99.90;;;;;;5021337;28;20959;-60
2023/08/28 05:39:55;;;;;;;10.57;7.30;;;14.50;99.90;;;;;;5023397;28;20116;-59
2023/08/28 05:42:21;;;;;;;11.60;6.20;;;14.50;99.90;;;;;;5024485;28;20071;-61
2023/08/28 05:44:46;;;;;;;8.63;7.43;;;14.50;99.90;;;;;;5031714;28;20017;-62
2023/08/28 05:47:12;;;;;;;8.52;6.97;;;14.50;99.90;;;;;;5029021;28;20160;-60
2023/08/28 05:49:37;;;;;;;8.75;6.18;;;14.50;99.90;;;;;;5030458;28;20448;-61
2023/08/28 05:52:04;;;;;;;7.15;6.45;;;14.50;99.90;;;;;;5029639;28;20037;-60
2023/08/28 05:54:29;;;;;;;8.00;6.40;;;14.40;99.90;;;;;;5029209;28;20055;-61
2023/08/28 05:56:55;;;;;;;6.60;6.00;;;14.50;99.90;;;;;;5030381;28;20052;-61
2023/08/28 05:59:21;;;;;;;6.35;5.85;;;14.50;99.90;;;;;;5029210;28;20111;-62
2023/08/28 06:01:46;;;;;;;8.65;6.30;;;14.50;99.90;;;;;;5028744;28;20036;-62
2023/08/28 06:04:12;;;;;;;19.45;6.55;;;14.60;99.90;;;;;;5029294;28;20029;-61
2023/08/28 06:06:41;;;;;;;6.68;6.07;;;14.60;99.90;;;;;;5031903;28;20036;-60
2023/08/28 06:09:07;;;;;;;7.95;5.47;;;14.60;99.90;;;;;;5031217;28;20600;-59
2023/08/28 06:11:33;;;;;;;11.45;6.20;;;14.60;99.90;;;;;;5030229;28;20618;-60
2023/08/28 06:13:59;;;;;;;6.60;6.10;;;14.70;99.90;;;;;;5030116;28;20029;-60
2023/08/28 06:16:25;;;;;;;14.48;6.93;;;14.70;99.90;;;;;;5031331;28;20517;-62
2023/08/28 06:18:51;;;;;;;17.88;7.45;;;14.70;99.90;;;;;;5030607;28;20099;-61
2023/08/28 06:21:17;;;;;;;11.18;6.30;;;14.70;99.90;;;;;;5031662;28;20038;-61
2023/08/28 06:23:42;;;;;;;5.88;5.35;;;14.70;99.90;;;;;;5031703;28;20025;-61
2023/08/28 06:26:08;;;;;;;5.38;4.97;;;14.70;99.90;;;;;;5029523;28;20044;-60
2023/08/28 06:28:34;;;;;;;5.05;4.55;;;14.60;99.90;;;;;;5033252;28;20029;-59
2023/08/28 06:31:03;;;;;;;4.57;4.18;;;14.50;99.90;;;;;;5028583;28;20391;-61
2023/08/28 06:33:29;;;;;;;4.70;4.30;;;14.50;99.90;;;;;;5028706;28;20032;-61
2023/08/28 06:35:54;;;;;;;5.82;5.32;;;14.50;99.90;;;;;;5028403;28;20033;-61
2023/08/28 06:38:20;;;;;;;6.00;5.50;;;14.50;99.90;;;;;;5028538;28;20409;-60
2023/08/28 06:40:50;;;;;;;5.75;4.78;;;14.60;99.90;;;;;;5023756;28;20030;-62
2023/08/28 06:43:16;;;;;;;6.43;5.72;;;14.60;99.90;;;;;;5028310;28;20033;-62
2023/08/28 06:45:42;;;;;;;5.82;5.28;;;14.60;99.90;;;;;;5023212;28;20436;-62
2023/08/28 06:48:08;;;;;;;14.07;6.40;;;14.60;99.90;;;;;;5025900;28;20508;-61
2023/08/28 06:50:36;;;;;;;8.13;5.45;;;14.60;99.90;;;;;;5027291;28;20451;-62
2023/08/28 06:53:02;;;;;;;5.70;5.20;;;14.60;99.90;;;;;;5027750;28;20034;-61
2023/08/28 06:55:28;;;;;;;4.43;3.85;;;14.70;99.90;;;;;;5027694;28;20030;-61
2023/08/28 06:57:54;;;;;;;8.05;3.40;;;14.70;99.90;;;;;;5027565;28;20075;-60
2023/08/28 07:00:19;;;;;;;5.10;3.10;;;14.70;99.90;;;;;;5026365;28;20025;-61
2023/08/28 07:02:45;;;;;;;4.45;2.30;;;14.70;99.90;;;;;;5027874;28;20014;-61
2023/08/28 07:05:11;;;;;;;4.88;2.55;;;14.70;99.90;;;;;;5026250;28;20057;-59
2023/08/28 07:07:36;;;;;;;5.22;2.35;;;14.70;99.90;;;;;;5027518;28;20040;-60
2023/08/28 07:10:04;;;;;;;3.92;2.88;;;14.70;99.90;;;;;;5028393;28;20063;-61
2023/08/28 07:12:29;;;;;;;3.67;2.67;;;14.80;99.90;;;;;;5028114;28;20032;-60
2023/08/28 07:15:11;;;;;;;3.72;2.58;;;14.80;99.90;;;;;;5029408;28;20026;-60
2023/08/28 07:17:37;;;;;;;;;;;14.80;99.90;;;;;;5031886;28;20573;-62
2023/08/28 07:20:04;;;;;;;4.75;2.70;;;14.90;99.90;;;;;;5027203;28;19966;-60
2023/08/28 07:22:30;;;;;;;3.30;2.50;;;14.90;99.90;;;;;;5022850;28;20112;-61
2023/08/28 07:24:56;;;;;;;3.78;2.40;;;15.00;99.90;;;;;;5023561;28;20165;-61
2023/08/28 07:27:22;;;;;;;6.13;2.45;;;15.00;99.90;;;;;;5033083;28;20412;-61
2023/08/28 07:29:47;;;;;;;6.00;2.40;;;15.00;99.90;;;;;;5025284;28;20022;-62
2023/08/28 07:32:13;;;;;;;4.13;2.55;;;15.00;99.90;;;;;;5025501;28;20040;-60
2023/08/28 07:34:39;;;;;;;17.95;3.53;;;14.90;99.90;;;;;;5020442;28;20072;-60
2023/08/28 07:37:05;;;;;;;5.30;3.08;;;15.00;99.90;;;;;;5025536;28;20052;-60
2023/08/28 07:39:30;;;;;;;5.63;4.28;;;15.00;99.90;;;;;;5027219;28;20401;-59
2023/08/28 07:41:59;;;;;;;8.70;7.05;;;15.00;99.90;;;;;;5029481;28;20028;-60
2023/08/28 07:44:25;;;;;;;11.82;9.02;;;14.90;99.90;;;;;;5030514;28;20037;-60
2023/08/28 07:46:50;;;;;;;17.08;9.18;;;14.90;99.90;;;;;;5026606;28;20041;-59
2023/08/28 07:49:16;;;;;;;11.75;8.45;;;14.80;99.90;;;;;;5023837;28;20564;-58
2023/08/28 07:51:42;;;;;;;13.48;7.15;;;14.80;99.90;;;;;;5026268;28;20967;-59
2023/08/28 07:54:08;;;;;;;7.82;7.13;;;14.70;99.90;;;;;;5036979;28;20151;-58
2023/08/28 07:56:33;;;;;;;10.65;5.53;;;14.70;99.90;;;;;;5028503;28;20386;-58
2023/08/28 07:58:59;;;;;;;6.70;4.90;;;14.70;99.90;;;;;;5023909;28;20040;-57
2023/08/28 08:01:25;;;;;;;5.05;4.60;;;14.70;99.90;;;;;;5023649;28;20021;-60
2023/08/28 08:03:50;;;;;;;8.18;4.18;;;14.80;99.90;;;;;;5020787;28;20030;-60
2023/08/28 08:06:17;;;;;;;7.93;4.03;;;14.80;99.90;;;;;;5026279;28;20029;-60
2023/08/28 08:08:45;;;;;;;3.47;3.17;;;14.90;99.90;;;;;;5027403;28;20093;-58
2023/08/28 08:11:11;;;;;;;5.95;3.72;;;15.00;99.90;;;;;;5024082;28;20037;-59
2023/08/28 08:13:37;;;;;;;4.38;3.97;;;15.10;99.90;;;;;;5028175;28;20029;-60
2023/08/28 08:16:04;;;;;;;5.90;4.35;;;15.10;99.90;;;;;;5029887;28;20661;-61
2023/08/28 08:18:30;;;;;;;3.72;3.42;;;15.10;99.90;;;;;;5030599;28;20037;-59
2023/08/28 08:20:56;;;;;;;4.32;2.92;;;15.10;99.90;;;;;;5031668;28;20041;-62
2023/08/28 08:23:22;;;;;;;3.60;3.30;;;15.10;99.90;;;;;;5031454;28;20140;-61
2023/08/28 08:25:47;;;;;;;4.63;2.58;;;15.10;99.90;;;;;;5030475;28;20032;-59
2023/08/28 08:28:15;;;;;;;3.85;3.55;;;15.10;99.90;;;;;;5027586;28;20025;-61
2023/08/28 08:30:41;;;;;;;3.60;3.13;;;15.00;99.90;;;;;;5028449;28;20060;-62
2023/08/28 08:33:07;;;;;;;3.70;3.40;;;15.00;99.90;;;;;;5026571;28;20025;-61
2023/08/28 08:35:34;;;;;;;4.78;3.40;;;14.90;99.90;;;;;;5023871;28;20029;-61
2023/08/28 08:38:00;;;;;;;4.65;3.42;;;14.90;99.90;;;;;;5028893;28;20121;-61
2023/08/28 08:40:26;;;;;;;6.07;3.47;;;14.90;99.90;;;;;;5031168;28;20120;-61
2023/08/28 08:42:53;;;;;;;4.40;4.03;;;14.90;99.90;;;;;;5030524;28;20486;-60
2023/08/28 08:45:23;;;;;;;6.82;3.45;;;14.90;99.90;;;;;;5030526;28;21507;-64
2023/08/28 08:47:53;;;;;;;6.40;4.15;;;15.00;99.90;;;;;;5033252;28;20135;-62
2023/08/28 08:50:19;;;;;;;4.75;4.25;;;15.00;99.90;;;;;;5027847;28;20156;-60
2023/08/28 08:52:47;;;;;;;6.00;2.63;;;15.00;99.90;;;;;;5031066;28;20029;-61
2023/08/28 08:55:30;;;;;;;4.68;2.60;;;15.00;99.90;;;;;;5030755;28;20065;-60
2023/08/28 08:57:59;;;;;;;3.30;3.00;;;15.00;99.90;;;;;;5027176;28;20116;-61
2023/08/28 09:00:26;;;;;;;6.93;3.40;;;15.10;99.90;;;;;;5028268;28;20505;-62
2023/08/28 09:02:52;;;;;;;4.72;3.30;;;15.10;99.90;;;;;;5030363;28;20025;-62
2023/08/28 09:05:19;;;;;;;4.22;3.58;;;15.20;99.90;;;;;;5029911;28;20107;-60
2023/08/28 09:07:46;;;;;;;5.07;3.20;;;15.30;99.90;;;;;;5030877;28;20493;-60
2023/08/28 09:10:14;;;;;;;4.07;2.70;;;15.40;99.90;;;;;;5030017;28;20036;-60
2023/08/28 09:12:46;;;;;;;3.53;2.67;;;15.50;99.90;;;;;;5025784;28;20030;-60
2023/08/28 09:15:11;;;;;;;5.45;2.97;;;15.50;99.90;;;;;;5025591;28;20033;-57
2023/08/28 09:17:39;;;;;;;5.95;3.10;;;15.50;99.90;;;;;;5026775;28;20041;-58
2023/08/28 09:20:16;;;;;;;5.25;3.00;;;15.50;99.90;;;;;;5031189;28;20136;-60
2023/08/28 09:22:50;;;;;;;3.03;2.65;;;15.60;99.90;;;;;;5027106;28;20030;-61
2023/08/28 09:25:17;;;;;;;6.00;3.15;;;15.60;99.90;;;;;;5028236;28;20037;-60
2023/08/28 09:27:44;;;;;;;3.15;2.95;;;15.60;99.90;;;;;;5024545;28;20516;-61
2023/08/28 09:30:10;;;;;;;8.30;2.78;;;15.70;99.90;;;;;;5030015;28;20437;-61
2023/08/28 09:32:44;;;;;;;3.30;3.00;;;15.60;99.90;;;;;;5029452;28;20474;-61
2023/08/28 09:35:10;;;;;;;2.95;2.75;;;15.60;99.90;;;;;;5027401;28;20033;-62
2023/08/28 09:37:35;;;;;;;2.55;2.35;;;15.50;99.90;;;;;;5029839;28;20024;-60
2023/08/28 09:40:02;;;;;;;3.17;2.53;;;15.50;99.90;;;;;;5028647;28;20052;-59
2023/08/28 09:42:27;;;;;;;7.53;2.95;;;15.40;99.90;;;;;;5031759;28;20032;-60
2023/08/28 09:44:53;;;;;;;3.78;3.45;;;15.40;99.90;;;;;;5029747;28;20034;-61
2023/08/28 09:47:22;;;;;;;3.42;3.13;;;15.30;99.90;;;;;;5029550;28;20034;-63
2023/08/28 09:49:51;;;;;;;3.58;3.08;;;15.30;99.90;;;;;;5014366;28;20167;-61
2023/08/28 09:52:26;;;;;;;3.60;3.00;;;15.30;99.90;;;;;;5029979;28;20111;-62
2023/08/28 09:55:04;;;;;;;8.05;3.65;;;15.30;99.90;;;;;;5023030;28;20033;-62
2023/08/28 09:57:30;;;;;;;7.80;3.70;;;15.30;99.90;;;;;;5037841;28;20398;-61
2023/08/28 09:59:56;;;;;;;2.97;2.72;;;15.30;99.90;;;;;;5027156;28;20947;-60
2023/08/28 10:02:23;;;;;;;3.30;2.22;;;15.30;99.90;;;;;;5031133;28;20028;-61
2023/08/28 10:04:52;;;;;;;2.92;2.65;;;15.30;99.90;;;;;;5024043;28;20371;-60
2023/08/28 10:07:24;;;;;;;3.50;2.78;;;15.30;99.90;;;;;;5026997;28;20048;-60
2023/08/28 10:09:53;;;;;;;3.47;3.17;;;15.30;99.90;;;;;;5030621;28;20565;-59
2023/08/28 10:12:21;;;;;;;15.02;3.28;;;15.30;99.90;;;;;;5028790;28;20032;-61
2023/08/28 10:14:49;;;;;;;4.05;2.55;;;15.20;99.90;;;;;;5031745;28;20097;-61
2023/08/28 10:17:17;;;;;;;6.03;2.65;;;15.20;99.90;;;;;;5028839;28;20789;-61
2023/08/28 10:19:48;;;;;;;4.30;2.53;;;15.20;99.90;;;;;;5022779;28;20037;-61
2023/08/28 10:22:15;;;;;;;3.22;2.80;;;15.30;99.90;;;;;;5032999;28;20140;-62
2023/08/28 10:24:44;;;;;;;2.60;2.17;;;15.30;99.90;;;;;;5034185;28;20041;-60
2023/08/28 10:27:11;;;;;;;2.42;2.22;;;15.30;99.90;;;;;;5031891;28;20450;-63
2023/08/28 10:29:41;;;;;;;2.97;2.13;;;15.40;99.90;;;;;;5032805;28;20493;-60
2023/08/28 10:32:09;;;;;;;2.78;2.58;;;15.40;99.90;;;;;;5016690;28;20034;-61
2023/08/28 10:34:44;;;;;;;2.35;2.05;;;15.40;99.90;;;;;;5029258;28;20026;-61
2023/08/28 10:37:12;;;;;;;3.63;2.20;;;15.30;99.90;;;;;;5026632;28;20060;-62
2023/08/28 10:39:41;;;;;;;3.70;2.55;;;15.30;99.90;;;;;;5028283;28;20409;-60
2023/08/28 10:42:20;;;;;;;8.68;2.97;;;15.30;99.90;;;;;;5026667;28;20078;-61
2023/08/28 10:44:47;;;;;;;8.73;3.58;;;15.30;99.90;;;;;;5025396;28;20030;-60
2023/08/28 10:47:19;;;;;;;4.10;2.95;;;15.20;99.90;;;;;;5027322;28;20055;-62
2023/08/28 10:49:45;;;;;;;4.03;3.63;;;15.20;99.90;;;;;;5027418;28;20395;-61
2023/08/28 10:52:11;;;;;;;4.40;3.08;;;15.20;99.90;;;;;;5028975;28;20043;-61
2023/08/28 10:54:42;;;;;;;5.40;3.13;;;15.10;99.90;;;;;;5025060;28;20026;-61
2023/08/28 10:57:21;;;;;;;4.45;3.65;;;15.10;99.90;;;;;;5027098;28;20026;-60
2023/08/28 10:59:49;;;;;;;6.20;4.20;;;15.00;99.90;;;;;;5011847;28;20452;-59
2023/08/28 11:02:15;;;;;;;4.72;4.25;;;14.90;99.90;;;;;;5024030;28;20049;-60
2023/08/28 11:04:41;;;;;;;7.75;7.03;;;14.80;99.90;;;;;;5025025;28;20075;-61
2023/08/28 11:07:27;;;;;;;3.28;3.05;;;14.80;99.90;;;;;;5019907;28;20137;-60
2023/08/28 11:10:20;;;;;;;3.75;2.67;;;14.70;99.90;;;;;;5028481;28;20065;-61
2023/08/28 11:13:02;;;;;;;3.30;3.00;;;14.60;99.90;;;;;;5025141;28;20485;-59
2023/08/28 11:15:30;;;;;;;7.03;4.25;;;14.60;99.90;;;;;;5027370;28;20087;-61
2023/08/28 11:18:28;;;;;;;4.90;4.57;;;14.60;99.90;;;;;;5023049;28;20014;-60
2023/08/28 11:21:03;;;;;;;4.75;4.35;;;14.70;99.90;;;;;;5024511;28;20037;-61
2023/08/28 11:23:36;;;;;;;4.85;2.88;;;14.90;99.90;;;;;;5024533;28;20036;-59
2023/08/28 11:26:06;;;;;;;5.15;4.75;;;14.90;99.90;;;;;;5021547;28;20037;-61
2023/08/28 11:28:43;;;;;;;4.20;3.42;;;14.90;99.90;;;;;;5023941;28;20601;-60
2023/08/28 11:31:09;;;;;;;4.32;4.00;;;14.90;99.90;;;;;;5025550;28;20044;-61
2023/08/28 11:33:46;;;;;;;7.35;5.13;;;15.00;99.90;;;;;;5025326;28;20030;-62
2023/08/28 11:36:15;;;;;;;7.10;5.25;;;15.20;99.90;;;;;;5025768;28;20029;-61
2023/08/28 11:38:41;;;;;;;3.80;2.60;;;15.30;99.90;;;;;;5027125;28;20017;-59
2023/08/28 11:41:10;;;;;;;4.10;3.80;;;15.40;99.90;;;;;;5027358;28;20148;-62
2023/08/28 11:43:43;;;;;;;3.70;3.00;;;15.60;99.90;;;;;;5022188;28;20037;-61
2023/08/28 11:46:10;;;;;;;3.85;2.78;;;15.70;99.90;;;;;;5026160;28;20027;-60
2023/08/28 11:48:37;;;;;;;5.63;3.78;;;15.60;99.90;;;;;;5026915;28;20030;-63
2023/08/28 11:51:07;;;;;;;3.70;3.35;;;15.70;99.90;;;;;;5029547;28;20033;-59
2023/08/28 11:53:37;;;;;;;2.67;2.22;;;15.80;99.90;;;;;;5027428;28;20515;-59
2023/08/28 11:56:04;;;;;;;4.63;2.28;;;16.10;99.90;;;;;;5022739;28;20034;-60
2023/08/28 11:58:34;;;;;;;2.80;1.92;;;16.20;99.90;;;;;;5025953;28;20041;-61
2023/08/28 12:01:05;;;;;;;3.40;2.40;;;16.30;99.90;;;;;;5026100;28;20033;-61
2023/08/28 12:03:32;;;;;;;2.25;1.88;;;16.40;99.90;;;;;;5029173;28;20489;-60
2023/08/28 12:06:04;;;;;;;1.90;1.80;;;16.40;99.90;;;;;;5027206;28;20041;-59
2023/08/28 12:08:30;;;;;;;2.28;2.10;;;16.40;99.90;;;;;;5026499;28;20098;-61
2023/08/28 12:10:57;;;;;;;2.38;2.17;;;16.40;99.90;;;;;;5024970;28;20117;-60
2023/08/28 12:13:23;;;;;;;3.85;2.17;;;16.50;99.90;;;;;;5024369;28;20052;-62
2023/08/28 12:15:48;;;;;;;3.38;2.28;;;16.30;99.90;;;;;;5023376;28;20030;-60
2023/08/28 12:18:14;;;;;;;3.40;2.10;;;16.20;99.90;;;;;;5022602;28;20072;-62
2023/08/28 12:20:40;;;;;;;2.13;2.03;;;16.20;99.90;;;;;;5025163;28;20035;-61
2023/08/28 12:23:06;;;;;;;2.85;2.00;;;16.20;99.90;;;;;;5027758;28;20030;-59
2023/08/28 12:25:40;;;;;;;2.92;2.65;;;16.30;99.90;;;;;;5026525;28;20048;-60
2023/08/28 12:28:06;;;;;;;2.47;2.28;;;16.20;99.90;;;;;;5029159;28;20022;-60
2023/08/28 12:30:32;;;;;;;1.95;1.83;;;16.20;99.90;;;;;;5024120;28;20029;-60
2023/08/28 12:32:58;;;;;;;2.33;2.13;;;16.00;99.90;;;;;;5030636;28;20496;-61
2023/08/28 12:35:26;;;;;;;4.13;2.67;;;16.00;99.90;;;;;;5024638;28;20038;-62
2023/08/28 12:37:51;;;;;;;4.13;2.53;;;15.90;99.90;;;;;;5025716;28;20068;-61
2023/08/28 12:40:17;;;;;;;3.22;2.33;;;15.90;99.90;;;;;;5022522;28;20434;-60
2023/08/28 12:42:43;;;;;;;2.28;2.08;;;15.80;99.90;;;;;;5023340;28;20025;-61
2023/08/28 12:45:09;;;;;;;2.83;2.30;;;15.70;99.90;;;;;;5027763;28;20029;-60
2023/08/28 12:47:35;;;;;;;5.00;2.33;;;15.70;99.90;;;;;;5030177;28;20021;-59